Time,TemperatureF,DewpointF,PressureIn,WindDirection,WindDirectionDegrees,WindSpeedMPH,WindSpeedGustMPH,Humidity,HourlyPrecipIn,Conditions,Clouds,dailyrainin,SoftwareType,DateUTC
2013-09-03 00:01:00,69.6,65.2,29.62,NW,314,0.0,0.0,86,0.00,,,0.00,VWS V14.00,2013-09-03 04:01:00,
2013-09-03 00:02:00,69.6,65.2,29.62,NW,314,0.0,0.0,86,0.00,,,0.00,VWS V14.00,2013-09-03 04:02:00,
2013-09-03 00:07:00,69.6,65.2,29.62,NW,314,0.0,0.0,86,0.00,,,0.00,VWS V14.00,2013-09-03 04:07:00,
2013-09-03 00:12:00,69.6,65.2,29.62,NW,314,0.0,0.0,86,0.00,,,0.00,VWS V14.00,2013-09-03 04:12:00,
2013-09-03 00:17:00,69.4,65.1,29.62,NW,314,0.0,0.0,86,0.00,,,0.00,VWS V14.00,2013-09-03 04:17:00,
2013-09-03 00:22:00,69.4,65.1,29.62,NW,314,0.0,0.0,86,0.00,,,0.00,VWS V14.00,2013-09-03 04:22:00,
2013-09-03 00:27:00,69.4,65.4,29.62,NW,314,0.0,0.0,87,0.00,,,0.00,VWS V14.00,2013-09-03 04:27:00,
2013-09-03 00:33:00,69.4,65.4,29.62,NW,314,0.0,0.0,87,0.00,,,0.00,VWS V14.00,2013-09-03 04:33:00,
2013-09-03 00:38:00,69.6,65.6,29.62,NW,314,0.0,0.0,87,0.00,,,0.00,VWS V14.00,2013-09-03 04:38:00,
2013-09-03 00:43:00,69.4,65.4,29.62,ENE,63,0.0,0.0,87,0.00,,,0.00,VWS V14.00,2013-09-03 04:43:00,
2013-09-03 00:48:00,69.8,66.1,29.62,East,84,0.0,0.0,88,0.00,,,0.00,VWS V14.00,2013-09-03 04:48:00,
2013-09-03 00:53:00,71.1,68.0,29.62,NW,311,0.0,0.0,90,0.00,,,0.00,VWS V14.00,2013-09-03 04:53:00,
2013-09-03 00:58:00,72.0,68.9,29.62,SW,229,0.0,0.0,90,0.00,,,0.00,VWS V14.00,2013-09-03 04:58:00,
2013-09-03 01:03:00,72.7,66.2,29.62,SW,228,0.0,0.0,80,0.00,,,0.00,VWS V14.00,2013-09-03 05:03:00,
2013-09-03 01:08:00,73.6,64.8,29.62,SW,228,0.0,0.0,74,0.00,,,0.00,VWS V14.00,2013-09-03 05:08:00,
2013-09-03 01:13:00,74.3,63.1,29.59,SW,229,0.0,0.0,68,0.00,,,0.00,VWS V14.00,2013-09-03 05:13:00,
2013-09-03 01:18:00,74.3,61.8,29.59,SSE,147,0.0,0.0,65,0.00,,,0.00,VWS V14.00,2013-09-03 05:18:00,
2013-09-03 01:23:00,73.9,61.9,29.59,South,172,0.0,0.0,66,0.00,,,0.00,VWS V14.00,2013-09-03 05:23:00,
2013-09-03 01:28:00,73.8,62.1,29.59,South,173,0.0,0.0,67,0.00,,,0.00,VWS V14.00,2013-09-03 05:28:00,
2013-09-03 01:33:00,73.8,61.7,29.59,South,173,0.0,0.0,66,0.00,,,0.00,VWS V14.00,2013-09-03 05:33:00,
2013-09-03 01:38:00,73.9,61.0,29.59,South,173,0.0,0.0,64,0.00,,,0.00,VWS V14.00,2013-09-03 05:38:00,
2013-09-03 01:43:00,74.1,61.6,29.59,South,173,0.0,0.0,65,0.00,,,0.00,VWS V14.00,2013-09-03 05:43:00,
2013-09-03 01:48:00,74.1,60.3,29.59,South,173,0.0,0.0,62,0.00,,,0.00,VWS V14.00,2013-09-03 05:48:00,
2013-09-03 01:53:00,73.0,58.3,29.59,South,173,0.0,0.0,60,0.00,,,0.00,VWS V14.00,2013-09-03 05:53:00,
2013-09-03 01:58:00,71.8,58.1,29.56,SSE,147,0.0,0.0,62,0.00,,,0.00,VWS V14.00,2013-09-03 05:58:00,
2013-09-03 02:03:00,71.1,58.3,29.56,SSE,147,0.0,0.0,64,0.00,,,0.00,VWS V14.00,2013-09-03 06:03:00,
2013-09-03 02:08:00,70.5,59.0,29.56,SSE,147,0.0,0.0,67,0.00,,,0.00,VWS V14.00,2013-09-03 06:08:00,
2013-09-03 02:13:00,70.2,59.1,29.53,SSE,148,0.0,2.7,68,0.00,,,0.00,VWS V14.00,2013-09-03 06:13:00,
2013-09-03 02:18:00,70.0,60.2,29.53,NW,311,0.0,0.0,71,0.00,,,0.00,VWS V14.00,2013-09-03 06:18:00,
2013-09-03 02:23:00,70.0,62.5,29.53,NW,305,4.5,4.9,77,0.00,,,0.00,VWS V14.00,2013-09-03 06:23:00,
2013-09-03 02:28:00,69.8,63.0,29.59,WNW,285,0.0,4.0,79,0.00,,,0.00,VWS V14.00,2013-09-03 06:28:00,
2013-09-03 02:33:00,69.6,62.8,29.59,West,265,0.0,0.0,79,0.00,,,0.00,VWS V14.00,2013-09-03 06:33:00,
2013-09-03 02:38:00,69.6,62.8,29.59,West,264,0.0,0.0,79,0.00,,,0.00,VWS V14.00,2013-09-03 06:38:00,
2013-09-03 02:43:00,69.6,63.2,29.56,West,264,0.0,0.0,80,0.00,,,0.00,VWS V14.00,2013-09-03 06:43:00,
2013-09-03 02:48:00,69.4,63.0,29.56,West,265,0.0,0.0,80,0.00,,,0.00,VWS V14.00,2013-09-03 06:48:00,
2013-09-03 02:53:00,69.3,62.8,29.56,West,265,0.0,0.0,80,0.00,,,0.00,VWS V14.00,2013-09-03 06:53:00,
2013-09-03 02:58:00,69.3,63.2,29.56,SSE,164,0.0,0.0,81,0.00,,,0.00,VWS V14.00,2013-09-03 06:58:00,
2013-09-03 03:03:00,69.1,63.0,29.56,SSE,164,0.0,0.0,81,0.00,,,0.00,VWS V14.00,2013-09-03 07:03:00,
2013-09-03 03:08:00,69.1,63.0,29.56,SSE,164,0.0,0.0,81,0.00,,,0.00,VWS V14.00,2013-09-03 07:08:00,
2013-09-03 03:13:00,68.9,62.8,29.56,SSE,164,0.0,0.0,81,0.00,,,0.00,VWS V14.00,2013-09-03 07:13:00,
2013-09-03 03:18:00,68.9,63.2,29.56,SSE,164,0.0,0.0,82,0.00,,,0.00,VWS V14.00,2013-09-03 07:18:00,
2013-09-03 03:23:00,68.7,63.0,29.56,SSE,164,0.0,0.0,82,0.00,,,0.00,VWS V14.00,2013-09-03 07:23:00,
2013-09-03 03:28:00,68.7,63.3,29.56,SSE,164,0.0,0.0,83,0.00,,,0.00,VWS V14.00,2013-09-03 07:28:00,
2013-09-03 03:33:00,68.5,63.2,29.56,SSE,164,0.0,0.0,83,0.00,,,0.00,VWS V14.00,2013-09-03 07:33:00,
2013-09-03 03:38:00,68.5,63.2,29.56,SSE,164,0.0,0.0,83,0.00,,,0.00,VWS V14.00,2013-09-03 07:38:00,
2013-09-03 03:43:00,68.4,63.3,29.56,SSE,164,0.0,0.0,84,0.00,,,0.00,VWS V14.00,2013-09-03 07:43:00,
2013-09-03 03:48:00,68.4,63.7,29.56,SSE,164,0.0,0.0,85,0.00,,,0.00,VWS V14.00,2013-09-03 07:48:00,
2013-09-03 03:53:00,68.2,63.5,29.56,SSE,164,0.0,0.0,85,0.00,,,0.00,VWS V14.00,2013-09-03 07:53:00,
2013-09-03 03:58:00,68.0,63.3,29.56,SSE,164,0.0,0.0,85,0.00,,,0.00,VWS V14.00,2013-09-03 07:58:00,
2013-09-03 04:03:00,68.0,63.7,29.56,SSE,164,0.0,0.0,86,0.00,,,0.00,VWS V14.00,2013-09-03 08:03:00,
2013-09-03 04:08:00,67.8,63.5,29.56,SSE,164,0.0,0.0,86,0.00,,,0.00,VWS V14.00,2013-09-03 08:08:00,
2013-09-03 04:13:00,67.8,63.5,29.56,SSE,164,0.0,0.0,86,0.00,,,0.00,VWS V14.00,2013-09-03 08:13:00,
2013-09-03 04:18:00,67.6,63.3,29.56,SSE,164,0.0,0.0,86,0.00,,,0.00,VWS V14.00,2013-09-03 08:18:00,
2013-09-03 04:23:00,67.6,63.3,29.56,SSE,164,0.0,0.0,86,0.00,,,0.00,VWS V14.00,2013-09-03 08:23:00,
2013-09-03 04:28:00,67.6,63.6,29.56,SSE,164,0.0,0.0,87,0.00,,,0.00,VWS V14.00,2013-09-03 08:28:00,
2013-09-03 04:33:00,67.5,63.5,29.56,SSE,164,0.0,0.0,87,0.00,,,0.00,VWS V14.00,2013-09-03 08:33:00,
2013-09-03 04:38:00,67.5,63.5,29.56,SSE,164,0.0,0.0,87,0.00,,,0.00,VWS V14.00,2013-09-03 08:38:00,
2013-09-03 04:43:00,67.3,63.3,29.59,SSE,164,0.0,0.0,87,0.00,,,0.00,VWS V14.00,2013-09-03 08:43:00,
2013-09-03 04:48:00,67.3,63.3,29.59,SE,146,0.0,0.0,87,0.00,,,0.00,VWS V14.00,2013-09-03 08:48:00,
2013-09-03 04:53:00,67.3,63.3,29.59,SE,145,0.0,0.0,87,0.00,,,0.00,VWS V14.00,2013-09-03 08:53:00,
2013-09-03 04:58:00,67.3,63.6,29.56,West,260,0.0,0.0,88,0.00,,,0.00,VWS V14.00,2013-09-03 08:58:00,
2013-09-03 05:03:00,67.1,63.1,29.56,West,260,0.0,0.0,87,0.00,,,0.00,VWS V14.00,2013-09-03 09:03:00,
2013-09-03 05:08:00,67.1,63.4,29.56,West,260,0.0,0.0,88,0.00,,,0.00,VWS V14.00,2013-09-03 09:08:00,
2013-09-03 05:13:00,67.1,63.4,29.59,West,260,0.0,0.0,88,0.00,,,0.00,VWS V14.00,2013-09-03 09:13:00,
2013-09-03 05:18:00,67.1,63.4,29.59,West,260,0.0,0.0,88,0.00,,,0.00,VWS V14.00,2013-09-03 09:18:00,
2013-09-03 05:23:00,67.1,63.8,29.59,West,260,0.0,0.0,89,0.00,,,0.00,VWS V14.00,2013-09-03 09:23:00,
2013-09-03 05:28:00,67.1,63.8,29.59,West,261,0.0,0.0,89,0.00,,,0.00,VWS V14.00,2013-09-03 09:28:00,
2013-09-03 05:33:00,67.1,63.8,29.59,West,261,0.0,0.0,89,0.00,,,0.00,VWS V14.00,2013-09-03 09:33:00,
2013-09-03 05:38:00,66.9,63.6,29.59,West,261,0.0,0.0,89,0.00,,,0.00,VWS V14.00,2013-09-03 09:38:00,
2013-09-03 05:43:00,66.9,63.6,29.59,West,260,0.0,0.0,89,0.00,,,0.00,VWS V14.00,2013-09-03 09:43:00,
2013-09-03 05:48:00,66.7,63.4,29.59,West,261,0.0,0.0,89,0.00,,,0.00,VWS V14.00,2013-09-03 09:48:00,
2013-09-03 05:53:00,66.7,63.4,29.59,West,260,0.0,0.0,89,0.00,,,0.00,VWS V14.00,2013-09-03 09:53:00,
2013-09-03 05:58:00,66.6,63.2,29.59,West,260,0.0,0.0,89,0.00,,,0.00,VWS V14.00,2013-09-03 09:58:00,
2013-09-03 06:03:00,66.6,63.2,29.59,West,260,0.0,0.0,89,0.00,,,0.00,VWS V14.00,2013-09-03 10:03:00,
2013-09-03 06:08:00,66.7,63.7,29.59,West,261,0.0,0.0,90,0.00,,,0.00,VWS V14.00,2013-09-03 10:08:00,
2013-09-03 06:13:00,66.7,63.7,29.59,West,260,0.0,0.0,90,0.00,,,0.00,VWS V14.00,2013-09-03 10:13:00,
2013-09-03 06:18:00,66.7,63.7,29.59,West,260,0.0,0.0,90,0.00,,,0.00,VWS V14.00,2013-09-03 10:18:00,
2013-09-03 06:23:00,66.6,63.5,29.59,West,260,0.0,0.0,90,0.00,,,0.00,VWS V14.00,2013-09-03 10:23:00,
2013-09-03 06:28:00,66.6,63.5,29.62,West,261,0.0,0.0,90,0.00,,,0.00,VWS V14.00,2013-09-03 10:28:00,
2013-09-03 06:33:00,66.6,63.5,29.62,West,260,0.0,0.0,90,0.00,,,0.00,VWS V14.00,2013-09-03 10:33:00,
2013-09-03 06:38:00,66.4,63.4,29.62,West,261,0.0,0.0,90,0.00,,,0.00,VWS V14.00,2013-09-03 10:38:00,
2013-09-03 06:43:00,66.4,63.4,29.62,West,260,0.0,0.0,90,0.00,,,0.00,VWS V14.00,2013-09-03 10:43:00,
2013-09-03 06:48:00,66.6,63.5,29.62,West,260,0.0,0.0,90,0.00,,,0.00,VWS V14.00,2013-09-03 10:48:00,
2013-09-03 06:53:00,68.0,65.6,29.62,West,260,0.0,0.0,92,0.00,,,0.00,VWS V14.00,2013-09-03 10:53:00,
2013-09-03 06:58:00,68.7,66.0,29.62,West,261,0.0,0.0,91,0.00,,,0.00,VWS V14.00,2013-09-03 10:58:00,
2013-09-03 07:03:00,69.8,62.6,29.62,West,261,0.0,0.0,78,0.00,,,0.00,VWS V14.00,2013-09-03 11:03:00,
2013-09-03 07:08:00,69.8,60.4,29.62,West,260,0.0,0.0,72,0.00,,,0.00,VWS V14.00,2013-09-03 11:08:00,
2013-09-03 07:13:00,69.1,58.9,29.62,West,260,0.0,0.0,70,0.00,,,0.00,VWS V14.00,2013-09-03 11:13:00,
2013-09-03 07:18:00,68.5,58.8,29.62,West,261,0.0,0.0,71,0.00,,,0.00,VWS V14.00,2013-09-03 11:18:00,
2013-09-03 07:23:00,68.2,58.8,29.62,West,261,0.0,0.0,72,0.00,,,0.00,VWS V14.00,2013-09-03 11:23:00,
2013-09-03 07:28:00,68.0,59.4,29.62,West,261,0.0,0.0,74,0.00,,,0.00,VWS V14.00,2013-09-03 11:28:00,
2013-09-03 07:33:00,67.6,59.4,29.62,West,261,0.0,0.0,75,0.00,,,0.00,VWS V14.00,2013-09-03 11:33:00,
2013-09-03 07:38:00,67.6,59.8,29.62,West,261,0.0,0.0,76,0.00,,,0.00,VWS V14.00,2013-09-03 11:38:00,
2013-09-03 07:43:00,67.6,60.5,29.62,West,261,0.0,0.0,78,0.00,,,0.00,VWS V14.00,2013-09-03 11:43:00,
2013-09-03 07:48:00,67.6,60.9,29.62,West,261,0.0,0.0,79,0.00,,,0.00,VWS V14.00,2013-09-03 11:48:00,
2013-09-03 07:53:00,67.8,61.4,29.62,West,261,0.0,0.0,80,0.00,,,0.00,VWS V14.00,2013-09-03 11:53:00,
2013-09-03 07:58:00,68.0,61.6,29.62,West,261,0.0,0.0,80,0.00,,,0.00,VWS V14.00,2013-09-03 11:58:00,
2013-09-03 08:03:00,68.4,62.3,29.62,West,261,0.0,0.0,81,0.00,,,0.00,VWS V14.00,2013-09-03 12:03:00,
2013-09-03 08:08:00,68.5,62.8,29.62,West,261,0.0,0.0,82,0.00,,,0.00,VWS V14.00,2013-09-03 12:08:00,
2013-09-03 08:13:00,68.7,62.7,29.62,West,261,0.0,0.0,81,0.00,,,0.00,VWS V14.00,2013-09-03 12:13:00,
2013-09-03 08:18:00,68.7,63.0,29.62,West,261,0.0,0.0,82,0.00,,,0.00,VWS V14.00,2013-09-03 12:18:00,
2013-09-03 08:23:00,68.9,63.2,29.62,West,261,0.0,0.0,82,0.00,,,0.00,VWS V14.00,2013-09-03 12:23:00,
2013-09-03 08:28:00,69.1,63.4,29.62,West,261,0.0,0.0,82,0.00,,,0.00,VWS V14.00,2013-09-03 12:28:00,
2013-09-03 08:33:00,69.3,63.5,29.62,West,261,0.0,0.0,82,0.00,,,0.00,VWS V14.00,2013-09-03 12:33:00,
2013-09-03 08:38:00,69.4,63.7,29.62,West,261,0.0,0.0,82,0.00,,,0.00,VWS V14.00,2013-09-03 12:38:00,
2013-09-03 08:43:00,69.6,64.2,29.62,West,261,0.0,0.0,83,0.00,,,0.00,VWS V14.00,2013-09-03 12:43:00,
2013-09-03 08:48:00,69.6,63.9,29.62,West,261,0.0,0.0,82,0.00,,,0.00,VWS V14.00,2013-09-03 12:48:00,
2013-09-03 08:53:00,69.6,63.9,29.62,West,261,0.0,0.0,82,0.00,,,0.00,VWS V14.00,2013-09-03 12:53:00,
2013-09-03 08:58:00,69.8,64.4,29.62,West,261,0.0,0.0,83,0.00,,,0.00,VWS V14.00,2013-09-03 12:58:00,
2013-09-03 09:03:00,69.8,64.4,29.62,West,261,0.0,0.0,83,0.00,,,0.00,VWS V14.00,2013-09-03 13:03:00,
2013-09-03 09:08:00,70.2,64.8,29.62,West,260,0.0,0.0,83,0.00,,,0.00,VWS V14.00,2013-09-03 13:08:00,
2013-09-03 09:13:00,70.5,65.5,29.65,West,261,0.0,0.0,84,0.00,,,0.00,VWS V14.00,2013-09-03 13:13:00,
2013-09-03 09:18:00,70.9,65.5,29.65,West,261,0.0,0.0,83,0.00,,,0.00,VWS V14.00,2013-09-03 13:18:00,
2013-09-03 09:23:00,71.2,65.8,29.65,West,261,0.0,0.0,83,0.00,,,0.00,VWS V14.00,2013-09-03 13:23:00,
2013-09-03 09:28:00,71.6,66.2,29.65,West,261,0.0,0.0,83,0.00,,,0.00,VWS V14.00,2013-09-03 13:28:00,
2013-09-03 09:33:00,72.0,66.2,29.65,West,261,0.0,0.0,82,0.00,,,0.00,VWS V14.00,2013-09-03 13:33:00,
2013-09-03 09:38:00,72.3,66.2,29.65,West,259,0.0,0.0,81,0.00,,,0.00,VWS V14.00,2013-09-03 13:38:00,
2013-09-03 09:43:00,72.3,65.4,29.65,WSW,257,2.7,2.7,79,0.00,,,0.00,VWS V14.00,2013-09-03 13:43:00,
2013-09-03 09:48:00,72.5,65.3,29.65,West,260,0.0,0.0,78,0.00,,,0.00,VWS V14.00,2013-09-03 13:48:00,
2013-09-03 09:53:00,72.7,65.1,29.65,West,260,0.0,0.0,77,0.00,,,0.00,VWS V14.00,2013-09-03 13:53:00,
2013-09-03 09:58:00,72.9,64.9,29.65,West,261,0.0,0.0,76,0.00,,,0.00,VWS V14.00,2013-09-03 13:58:00,
2013-09-03 10:03:00,73.2,64.8,29.65,West,260,0.0,0.0,75,0.00,,,0.00,VWS V14.00,2013-09-03 14:03:00,
2013-09-03 10:08:00,73.6,64.4,29.65,West,261,0.0,0.0,73,0.00,,,0.00,VWS V14.00,2013-09-03 14:08:00,
2013-09-03 10:13:00,73.6,63.6,29.65,West,263,0.0,0.0,71,0.00,,,0.00,VWS V14.00,2013-09-03 14:13:00,
2013-09-03 10:18:00,73.6,63.2,29.65,West,267,0.0,0.0,70,0.00,,,0.00,VWS V14.00,2013-09-03 14:18:00,
2013-09-03 10:23:00,73.6,62.4,29.65,North,356,0.0,0.0,68,0.00,,,0.00,VWS V14.00,2013-09-03 14:23:00,
2013-09-03 10:28:00,73.6,62.4,29.62,North,356,0.0,0.0,68,0.00,,,0.00,VWS V14.00,2013-09-03 14:28:00,
2013-09-03 10:33:00,73.8,62.1,29.62,North,0,0.0,0.0,67,0.00,,,0.00,VWS V14.00,2013-09-03 14:33:00,
2013-09-03 10:38:00,74.1,62.0,29.62,North,356,0.0,0.0,66,0.00,,,0.00,VWS V14.00,2013-09-03 14:38:00,
2013-09-03 10:43:00,74.1,60.3,29.62,North,356,0.0,0.0,62,0.00,,,0.00,VWS V14.00,2013-09-03 14:43:00,
2013-09-03 10:48:00,73.9,59.2,29.62,North,356,0.0,0.0,60,0.00,,,0.00,VWS V14.00,2013-09-03 14:48:00,
2013-09-03 10:53:00,73.8,59.0,29.62,North,356,0.0,0.0,60,0.00,,,0.00,VWS V14.00,2013-09-03 14:53:00,
2013-09-03 10:58:00,73.8,59.0,29.62,North,0,0.0,0.0,60,0.00,,,0.00,VWS V14.00,2013-09-03 14:58:00,
2013-09-03 11:03:00,73.9,59.7,29.62,North,4,0.0,0.0,61,0.00,,,0.00,VWS V14.00,2013-09-03 15:03:00,
2013-09-03 11:08:00,74.1,60.3,29.62,North,5,0.0,0.0,62,0.00,,,0.00,VWS V14.00,2013-09-03 15:08:00,
2013-09-03 11:13:00,74.7,60.3,29.62,WNW,289,0.0,0.0,61,0.00,,,0.00,VWS V14.00,2013-09-03 15:13:00,
2013-09-03 11:18:00,74.8,59.6,29.62,West,279,0.0,0.0,59,0.00,,,0.00,VWS V14.00,2013-09-03 15:18:00,
2013-09-03 11:23:00,74.7,58.9,29.62,ESE,119,0.0,0.0,58,0.00,,,0.00,VWS V14.00,2013-09-03 15:23:00,
2013-09-03 11:28:00,75.0,59.7,29.62,SSE,168,0.0,0.0,59,0.00,,,0.00,VWS V14.00,2013-09-03 15:28:00,
2013-09-03 11:33:00,75.4,59.6,29.62,SSE,167,0.0,0.0,58,0.00,,,0.00,VWS V14.00,2013-09-03 15:33:00,
2013-09-03 11:38:00,75.9,58.6,29.62,NNE,26,2.7,3.6,55,0.00,,,0.00,VWS V14.00,2013-09-03 15:38:00,
2013-09-03 11:43:00,76.3,57.9,29.62,West,261,0.0,0.0,53,0.00,,,0.00,VWS V14.00,2013-09-03 15:43:00,
2013-09-03 11:48:00,76.6,58.2,29.62,West,273,0.0,0.0,53,0.00,,,0.00,VWS V14.00,2013-09-03 15:48:00,
2013-09-03 11:53:00,76.6,57.2,29.62,North,351,0.0,0.0,51,0.00,,,0.00,VWS V14.00,2013-09-03 15:53:00,
2013-09-03 11:58:00,76.1,56.1,29.62,NNE,16,0.0,0.0,50,0.00,,,0.00,VWS V14.00,2013-09-03 15:58:00,
2013-09-03 12:03:00,75.6,55.6,29.62,NNE,15,0.0,0.0,50,0.00,,OVC033,0.00,VWS V14.00,2013-09-03 16:03:00,
2013-09-03 12:08:00,75.0,55.1,29.62,NNE,16,0.0,0.0,50,0.00,,OVC033,0.00,VWS V14.00,2013-09-03 16:08:00,
2013-09-03 12:13:00,74.7,55.3,29.62,NNE,16,0.0,0.0,51,0.00,,OVC033,0.00,VWS V14.00,2013-09-03 16:13:00,
2013-09-03 12:18:00,74.1,55.4,29.62,NNE,15,0.0,0.0,52,0.00,,OVC033,0.00,VWS V14.00,2013-09-03 16:18:00,
2013-09-03 12:23:00,73.9,55.8,29.62,NNE,16,0.0,0.0,53,0.00,,OVC033,0.00,VWS V14.00,2013-09-03 16:23:00,
2013-09-03 12:28:00,73.8,56.1,29.62,NNE,15,0.0,0.0,54,0.00,,OVC033,0.00,VWS V14.00,2013-09-03 16:28:00,
2013-09-03 12:33:00,73.8,56.6,29.62,NNE,16,0.0,0.0,55,0.00,,OVC033,0.00,VWS V14.00,2013-09-03 16:33:00,
2013-09-03 12:38:00,73.8,57.1,29.62,NNE,16,0.0,0.0,56,0.00,,OVC033,0.00,VWS V14.00,2013-09-03 16:38:00,
2013-09-03 12:43:00,73.6,56.9,29.62,NNE,16,0.0,0.0,56,0.00,,OVC033,0.00,VWS V14.00,2013-09-03 16:43:00,
2013-09-03 12:48:00,73.6,57.4,29.62,NNE,15,0.0,0.0,57,0.00,,OVC033,0.00,VWS V14.00,2013-09-03 16:48:00,
2013-09-03 12:53:00,73.6,57.9,29.62,NNE,15,0.0,0.0,58,0.00,,OVC033,0.00,VWS V14.00,2013-09-03 16:53:00,
2013-09-03 12:58:00,73.6,58.4,29.62,NNE,15,0.0,0.0,59,0.00,,OVC033,0.00,VWS V14.00,2013-09-03 16:58:00,
2013-09-03 13:03:00,73.4,58.7,29.62,NNE,16,0.0,0.0,60,0.00,,OVC033,0.00,VWS V14.00,2013-09-03 17:03:00,
2013-09-03 13:08:00,73.4,59.2,29.62,NNE,16,0.0,0.0,61,0.00,,OVC033,0.00,VWS V14.00,2013-09-03 17:08:00,
2013-09-03 13:13:00,73.2,59.4,29.62,NNE,15,0.0,0.0,62,0.00,,OVC033,0.00,VWS V14.00,2013-09-03 17:13:00,
2013-09-03 13:18:00,73.0,59.7,29.62,NNE,15,0.0,0.0,63,0.00,,OVC033,0.00,VWS V14.00,2013-09-03 17:18:00,
2013-09-03 13:23:00,72.9,60.4,29.62,NNE,15,0.0,0.0,65,0.00,,OVC033,0.00,VWS V14.00,2013-09-03 17:23:00,
2013-09-03 13:28:00,72.9,60.4,29.62,NNE,16,0.0,0.0,65,0.00,,OVC033,0.00,VWS V14.00,2013-09-03 17:28:00,
2013-09-03 13:33:00,72.7,60.7,29.62,NNE,15,0.0,0.0,66,0.00,,OVC033,0.00,VWS V14.00,2013-09-03 17:33:00,
2013-09-03 13:38:00,72.7,61.1,29.62,NNW,340,0.0,0.0,67,0.00,,OVC033,0.00,VWS V14.00,2013-09-03 17:38:00,
2013-09-03 13:43:00,72.7,61.5,29.62,NNW,333,0.0,0.0,68,0.00,,OVC033,0.00,VWS V14.00,2013-09-03 17:43:00,
2013-09-03 13:48:00,72.7,61.9,29.62,NNW,333,0.0,0.0,69,0.00,,OVC033,0.00,VWS V14.00,2013-09-03 17:48:00,
2013-09-03 13:53:00,72.9,62.1,29.62,NNW,332,0.0,0.0,69,0.00,,OVC033,0.00,VWS V14.00,2013-09-03 17:53:00,
2013-09-03 13:58:00,72.7,61.9,29.62,NNW,332,0.0,0.0,69,0.00,,OVC033,0.00,VWS V14.00,2013-09-03 17:58:00,
2013-09-03 14:03:00,72.5,61.8,29.62,NNW,342,0.0,2.7,69,0.00,,OVC033,0.00,VWS V14.00,2013-09-03 18:03:00,
2013-09-03 14:08:00,72.1,60.6,29.62,NW,317,0.0,3.1,67,0.00,,OVC033,0.00,VWS V14.00,2013-09-03 18:08:00,
2013-09-03 14:13:00,71.8,59.0,29.62,NW,315,0.0,3.6,64,0.00,,OVC033,0.00,VWS V14.00,2013-09-03 18:13:00,
2013-09-03 14:18:00,71.6,57.5,29.62,WNW,298,0.0,3.6,61,0.00,,OVC033,0.00,VWS V14.00,2013-09-03 18:18:00,
2013-09-03 14:23:00,71.8,57.2,29.62,WNW,297,0.0,3.1,60,0.00,,OVC033,0.00,VWS V14.00,2013-09-03 18:23:00,
2013-09-03 14:28:00,72.1,57.0,29.62,West,276,0.0,0.0,59,0.00,,OVC033,0.00,VWS V14.00,2013-09-03 18:28:00,
2013-09-03 14:33:00,72.7,56.6,29.62,WNW,302,0.0,2.7,57,0.00,,OVC033,0.00,VWS V14.00,2013-09-03 18:33:00,
2013-09-03 14:38:00,72.7,54.6,29.62,West,271,0.0,0.0,53,0.00,,OVC033,0.00,VWS V14.00,2013-09-03 18:38:00,
2013-09-03 14:43:00,72.5,53.4,29.62,WNW,295,0.0,3.1,51,0.00,,OVC033,0.00,VWS V14.00,2013-09-03 18:43:00,
2013-09-03 14:48:00,72.1,52.5,29.62,NNE,15,2.7,3.6,50,0.00,,OVC033,0.00,VWS V14.00,2013-09-03 18:48:00,
2013-09-03 14:53:00,72.0,52.3,29.62,NW,322,0.0,0.0,50,0.00,,OVC033,0.00,VWS V14.00,2013-09-03 18:53:00,
2013-09-03 14:58:00,71.6,51.5,29.62,ESE,104,0.0,0.0,49,0.00,,OVC033,0.00,VWS V14.00,2013-09-03 18:58:00,
2013-09-03 15:03:00,71.4,51.8,29.62,ESE,105,0.0,0.0,50,0.00,,OVC033,0.00,VWS V14.00,2013-09-03 19:03:00,
2013-09-03 15:08:00,71.4,52.4,29.62,WSW,256,0.0,0.0,51,0.00,,OVC033,0.00,VWS V14.00,2013-09-03 19:08:00,
2013-09-03 15:13:00,71.2,53.2,29.62,West,261,0.0,0.0,53,0.00,,OVC033,0.00,VWS V14.00,2013-09-03 19:13:00,
2013-09-03 15:18:00,71.1,53.1,29.62,NW,310,0.0,0.0,53,0.00,,OVC033,0.00,VWS V14.00,2013-09-03 19:18:00,
2013-09-03 15:23:00,71.1,53.1,29.62,NW,311,0.0,0.0,53,0.00,,OVC033,0.00,VWS V14.00,2013-09-03 19:23:00,
2013-09-03 15:28:00,71.2,53.8,29.62,NW,312,0.0,0.0,54,0.00,,OVC033,0.00,VWS V14.00,2013-09-03 19:28:00,
2013-09-03 15:33:00,71.2,53.8,29.62,NW,311,0.0,0.0,54,0.00,,OVC033,0.00,VWS V14.00,2013-09-03 19:33:00,
2013-09-03 15:38:00,71.2,53.2,29.62,NW,311,0.0,0.0,53,0.00,,OVC033,0.00,VWS V14.00,2013-09-03 19:38:00,
2013-09-03 15:43:00,71.2,53.2,29.62,NW,316,0.0,0.0,53,0.00,,OVC033,0.00,VWS V14.00,2013-09-03 19:43:00,
2013-09-03 15:48:00,71.4,53.9,29.62,WSW,246,0.0,0.0,54,0.00,,OVC033,0.00,VWS V14.00,2013-09-03 19:48:00,
2013-09-03 15:53:00,72.1,54.6,29.62,WNW,283,0.0,2.7,54,0.00,,OVC033,0.00,VWS V14.00,2013-09-03 19:53:00,
2013-09-03 15:58:00,72.9,53.7,29.62,NNW,335,0.0,2.7,51,0.00,,OVC033,0.00,VWS V14.00,2013-09-03 19:58:00,
2013-09-03 16:03:00,73.8,52.9,29.62,WSW,247,4.5,4.9,48,0.00,,OVC033,0.00,VWS V14.00,2013-09-03 20:03:00,
2013-09-03 16:08:00,74.3,52.8,29.62,WSW,245,0.0,0.0,47,0.00,,OVC033,0.00,VWS V14.00,2013-09-03 20:08:00,
2013-09-03 16:13:00,74.3,51.6,29.62,WNW,287,0.0,0.0,45,0.00,,OVC033,0.00,VWS V14.00,2013-09-03 20:13:00,
2013-09-03 16:18:00,74.3,51.6,29.62,West,260,0.0,2.7,45,0.00,,OVC033,0.00,VWS V14.00,2013-09-03 20:18:00,
2013-09-03 16:23:00,74.3,51.0,29.62,NW,322,0.0,0.0,44,0.00,,OVC033,0.00,VWS V14.00,2013-09-03 20:23:00,
2013-09-03 16:28:00,74.1,51.4,29.62,West,265,2.7,5.4,45,0.00,,OVC033,0.00,VWS V14.00,2013-09-03 20:28:00,
2013-09-03 16:33:00,74.1,51.4,29.62,WSW,255,0.0,4.9,45,0.00,,OVC033,0.00,VWS V14.00,2013-09-03 20:33:00,
2013-09-03 16:38:00,74.1,50.8,29.62,WNW,288,4.5,4.9,44,0.00,,OVC033,0.00,VWS V14.00,2013-09-03 20:38:00,
2013-09-03 16:43:00,74.1,50.8,29.62,West,271,3.1,3.1,44,0.00,,OVC033,0.00,VWS V14.00,2013-09-03 20:43:00,
2013-09-03 16:48:00,74.3,51.0,29.62,WSW,246,0.0,4.0,44,0.00,,OVC033,0.00,VWS V14.00,2013-09-03 20:48:00,
2013-09-03 16:53:00,74.3,51.0,29.62,West,266,0.0,3.1,44,0.00,,OVC033,0.00,VWS V14.00,2013-09-03 20:53:00,
2013-09-03 16:58:00,74.5,51.2,29.62,SW,229,2.7,3.1,44,0.00,,OVC033,0.00,VWS V14.00,2013-09-03 20:58:00,
2013-09-03 17:03:00,74.5,51.8,29.62,WNW,301,0.0,3.1,45,0.00,,OVC033,0.00,VWS V14.00,2013-09-03 21:03:00,
2013-09-03 17:08:00,74.5,52.4,29.62,WNW,294,3.1,4.0,46,0.00,,OVC033,0.00,VWS V14.00,2013-09-03 21:08:00,
2013-09-03 17:13:00,74.1,52.0,29.62,NNE,23,0.0,3.6,46,0.00,,OVC033,0.00,VWS V14.00,2013-09-03 21:13:00,
2013-09-03 17:18:00,74.3,51.6,29.62,NNW,343,0.0,0.0,45,0.00,,OVC033,0.00,VWS V14.00,2013-09-03 21:18:00,
2013-09-03 17:23:00,74.1,52.0,29.62,WSW,250,2.7,2.7,46,0.00,,OVC033,0.00,VWS V14.00,2013-09-03 21:23:00,
2013-09-03 17:28:00,73.9,53.0,29.62,West,270,0.0,0.0,48,0.00,,OVC033,0.00,VWS V14.00,2013-09-03 21:28:00,
2013-09-03 17:33:00,73.8,51.1,29.62,NW,305,0.0,0.0,45,0.00,,OVC033,0.00,VWS V14.00,2013-09-03 21:33:00,
2013-09-03 17:38:00,73.8,51.1,29.62,WNW,300,0.0,0.0,45,0.00,,OVC033,0.00,VWS V14.00,2013-09-03 21:38:00,
2013-09-03 17:43:00,73.8,51.7,29.62,NW,311,0.0,0.0,46,0.00,,OVC033,0.00,VWS V14.00,2013-09-03 21:43:00,
2013-09-03 17:48:00,73.4,50.8,29.62,NW,315,0.0,0.0,45,0.00,,OVC033,0.00,VWS V14.00,2013-09-03 21:48:00,
2013-09-03 17:53:00,73.2,50.6,29.62,NW,315,0.0,0.0,45,0.00,,OVC033,0.00,VWS V14.00,2013-09-03 21:53:00,
2013-09-03 17:58:00,73.0,51.1,29.62,NW,315,0.0,0.0,46,0.00,,OVC033,0.00,VWS V14.00,2013-09-03 21:58:00,
2013-09-03 18:03:00,72.7,50.7,29.62,NW,315,0.0,0.0,46,0.00,,OVC033,0.00,VWS V14.00,2013-09-03 22:03:00,
2013-09-03 18:08:00,72.3,51.0,29.62,NW,315,0.0,0.0,47,0.00,,OVC033,0.00,VWS V14.00,2013-09-03 22:08:00,
2013-09-03 18:13:00,72.1,51.9,29.62,NW,315,0.0,0.0,49,0.00,,OVC033,0.00,VWS V14.00,2013-09-03 22:13:00,
2013-09-03 18:18:00,71.8,52.2,29.62,NW,315,0.0,0.0,50,0.00,,OVC033,0.00,VWS V14.00,2013-09-03 22:18:00,
2013-09-03 18:23:00,71.4,52.9,29.62,NW,315,0.0,0.0,52,0.00,,OVC033,0.00,VWS V14.00,2013-09-03 22:23:00,
2013-09-03 18:28:00,71.2,53.2,29.65,NW,315,0.0,0.0,53,0.00,,OVC033,0.00,VWS V14.00,2013-09-03 22:28:00,
2013-09-03 18:33:00,70.9,52.9,29.65,NW,315,0.0,0.0,53,0.00,,OVC033,0.00,VWS V14.00,2013-09-03 22:33:00,
2013-09-03 18:38:00,70.7,53.8,29.65,NW,315,0.0,0.0,55,0.00,,OVC033,0.00,VWS V14.00,2013-09-03 22:38:00,
2013-09-03 18:43:00,70.7,54.7,29.65,NW,315,0.0,0.0,57,0.00,,OVC033,0.00,VWS V14.00,2013-09-03 22:43:00,
2013-09-03 18:48:00,70.7,55.7,29.65,NW,315,0.0,0.0,59,0.00,,OVC033,0.00,VWS V14.00,2013-09-03 22:48:00,
2013-09-03 18:53:00,70.5,56.0,29.65,NW,315,0.0,0.0,60,0.00,,OVC033,0.00,VWS V14.00,2013-09-03 22:53:00,
2013-09-03 18:58:00,70.3,56.7,29.65,NW,315,0.0,0.0,62,0.00,,OVC033,0.00,VWS V14.00,2013-09-03 22:58:00,
2013-09-03 19:03:00,70.2,57.0,29.65,NW,315,0.0,0.0,63,0.00,,OVC033,0.00,VWS V14.00,2013-09-03 23:03:00,
2013-09-03 19:08:00,70.2,57.4,29.65,NW,315,0.0,0.0,64,0.00,,OVC033,0.00,VWS V14.00,2013-09-03 23:08:00,
2013-09-03 19:13:00,70.0,57.7,29.65,NW,315,0.0,0.0,65,0.00,,OVC033,0.00,VWS V14.00,2013-09-03 23:13:00,
2013-09-03 19:18:00,70.0,57.7,29.65,NW,315,0.0,0.0,65,0.00,,OVC033,0.00,VWS V14.00,2013-09-03 23:18:00,
2013-09-03 19:23:00,69.8,57.9,29.65,NW,315,0.0,0.0,66,0.00,,OVC033,0.00,VWS V14.00,2013-09-03 23:23:00,
2013-09-03 19:28:00,69.6,57.8,29.65,NW,315,0.0,0.0,66,0.00,,OVC033,0.00,VWS V14.00,2013-09-03 23:28:00,
2013-09-03 19:33:00,69.6,57.8,29.65,NW,315,0.0,0.0,66,0.00,,OVC033,0.00,VWS V14.00,2013-09-03 23:33:00,
2013-09-03 19:38:00,69.4,57.6,29.65,NW,315,0.0,0.0,66,0.00,,OVC033,0.00,VWS V14.00,2013-09-03 23:38:00,
2013-09-03 19:43:00,69.3,57.4,29.65,NW,315,0.0,0.0,66,0.00,,OVC033,0.00,VWS V14.00,2013-09-03 23:43:00,
2013-09-03 19:48:00,69.3,57.4,29.65,NW,315,0.0,0.0,66,0.00,,OVC033,0.00,VWS V14.00,2013-09-03 23:48:00,
2013-09-03 19:53:00,68.9,57.1,29.65,NW,315,0.0,0.0,66,0.00,,OVC033,0.00,VWS V14.00,2013-09-03 23:53:00,
2013-09-03 19:58:00,69.1,59.3,29.68,NW,315,0.0,0.0,71,0.00,,OVC033,0.00,VWS V14.00,2013-09-03 23:58:00,
2013-09-03 20:03:00,70.3,59.3,29.68,NW,316,0.0,0.0,68,0.00,,OVC033,0.00,VWS V14.00,2013-09-04 00:03:00,
2013-09-03 20:08:00,71.6,57.5,29.68,NW,315,0.0,0.0,61,0.00,,OVC033,0.00,VWS V14.00,2013-09-04 00:08:00,
2013-09-03 20:13:00,72.7,55.6,29.68,NW,315,0.0,0.0,55,0.00,,OVC033,0.00,VWS V14.00,2013-09-04 00:13:00,
2013-09-03 20:18:00,73.4,54.2,29.68,NW,315,0.0,0.0,51,0.00,,OVC033,0.00,VWS V14.00,2013-09-04 00:18:00,
2013-09-03 20:23:00,73.6,52.7,29.68,NW,315,0.0,0.0,48,0.00,,OVC033,0.00,VWS V14.00,2013-09-04 00:23:00,
2013-09-03 20:28:00,73.4,52.5,29.68,NW,315,0.0,0.0,48,0.00,,OVC033,0.00,VWS V14.00,2013-09-04 00:28:00,
2013-09-03 20:33:00,73.2,52.9,29.68,West,279,0.0,0.0,49,0.00,,OVC033,0.00,VWS V14.00,2013-09-04 00:33:00,
2013-09-03 20:38:00,73.0,51.6,29.68,West,279,0.0,0.0,47,0.00,,OVC033,0.00,VWS V14.00,2013-09-04 00:38:00,
2013-09-03 20:43:00,73.2,51.2,29.68,West,279,0.0,0.0,46,0.00,,OVC033,0.00,VWS V14.00,2013-09-04 00:43:00,
2013-09-03 20:48:00,72.0,50.7,29.68,West,279,0.0,0.0,47,0.00,,OVC033,0.00,VWS V14.00,2013-09-04 00:48:00,
2013-09-03 20:53:00,70.7,51.2,29.68,West,279,0.0,0.0,50,0.00,,OVC033,0.00,VWS V14.00,2013-09-04 00:53:00,
2013-09-03 20:58:00,69.8,51.9,29.68,West,279,0.0,0.0,53,0.00,,OVC033,0.00,VWS V14.00,2013-09-04 00:58:00,
2013-09-03 21:03:00,68.9,52.6,29.68,West,279,0.0,0.0,56,0.00,,OVC033,0.00,VWS V14.00,2013-09-04 01:03:00,
2013-09-03 21:08:00,68.4,53.0,29.68,West,279,0.0,0.0,58,0.00,,OVC033,0.00,VWS V14.00,2013-09-04 01:08:00,
2013-09-03 21:13:00,68.0,53.2,29.68,West,279,0.0,0.0,59,0.00,,OVC033,0.00,VWS V14.00,2013-09-04 01:13:00,
2013-09-03 21:18:00,67.6,53.3,29.68,West,279,0.0,0.0,60,0.00,,OVC033,0.00,VWS V14.00,2013-09-04 01:18:00,
2013-09-03 21:23:00,67.3,53.4,29.68,West,279,0.0,0.0,61,0.00,,OVC033,0.00,VWS V14.00,2013-09-04 01:23:00,
2013-09-03 21:28:00,67.1,54.1,29.68,West,279,0.0,0.0,63,0.00,,OVC033,0.00,VWS V14.00,2013-09-04 01:28:00,
2013-09-03 21:33:00,66.9,54.4,29.68,West,279,0.0,0.0,64,0.00,,OVC033,0.00,VWS V14.00,2013-09-04 01:33:00,
2013-09-03 21:38:00,66.9,53.9,29.68,West,279,0.0,0.0,63,0.00,,OVC033,0.00,VWS V14.00,2013-09-04 01:38:00,
2013-09-03 21:43:00,66.7,53.3,29.71,West,279,0.0,0.0,62,0.00,,OVC033,0.00,VWS V14.00,2013-09-04 01:43:00,
2013-09-03 21:48:00,66.7,52.4,29.71,WNW,300,0.0,0.0,60,0.00,,OVC033,0.00,VWS V14.00,2013-09-04 01:48:00,
2013-09-03 21:53:00,66.7,52.0,29.71,WNW,301,0.0,0.0,59,0.00,,OVC033,0.00,VWS V14.00,2013-09-04 01:53:00,
2013-09-03 21:58:00,66.9,51.2,29.71,WNW,301,0.0,0.0,57,0.00,,OVC033,0.00,VWS V14.00,2013-09-04 01:58:00,
2013-09-03 22:03:00,68.9,48.4,29.71,West,277,2.7,3.1,48,0.00,,OVC033,0.00,VWS V14.00,2013-09-04 02:03:00,
2013-09-03 22:08:00,70.5,47.6,29.71,West,277,0.0,0.0,44,0.00,,OVC033,0.00,VWS V14.00,2013-09-04 02:08:00,
2013-09-03 22:13:00,71.6,46.0,29.71,West,279,0.0,0.0,40,0.00,,OVC033,0.00,VWS V14.00,2013-09-04 02:13:00,
2013-09-03 22:18:00,72.0,44.3,29.71,West,279,0.0,0.0,37,0.00,,OVC033,0.00,VWS V14.00,2013-09-04 02:18:00,
2013-09-03 22:23:00,72.0,44.3,29.71,WNW,282,0.0,0.0,37,0.00,,OVC033,0.00,VWS V14.00,2013-09-04 02:23:00,
2013-09-03 22:28:00,71.4,43.1,29.71,WNW,282,0.0,0.0,36,0.00,,OVC033,0.00,VWS V14.00,2013-09-04 02:28:00,
2013-09-03 22:33:00,69.6,43.6,29.71,WNW,282,0.0,0.0,39,0.00,,OVC033,0.00,VWS V14.00,2013-09-04 02:33:00,
2013-09-03 22:38:00,68.2,44.2,29.71,WNW,287,0.0,0.0,42,0.00,,OVC033,0.00,VWS V14.00,2013-09-04 02:38:00,
2013-09-03 22:43:00,67.5,44.8,29.71,WNW,287,0.0,0.0,44,0.00,,OVC033,0.00,VWS V14.00,2013-09-04 02:43:00,
2013-09-03 22:48:00,66.9,45.5,29.71,WNW,298,0.0,0.0,46,0.00,,OVC033,0.00,VWS V14.00,2013-09-04 02:48:00,
2013-09-03 22:53:00,66.4,45.6,29.71,WNW,298,0.0,0.0,47,0.00,,OVC033,0.00,VWS V14.00,2013-09-04 02:53:00,
2013-09-03 22:58:00,66.2,46.0,29.71,WNW,287,0.0,0.0,48,0.00,,OVC033,0.00,VWS V14.00,2013-09-04 02:58:00,
2013-09-03 23:03:00,66.0,46.3,29.71,WNW,282,0.0,0.0,49,0.00,,OVC033,0.00,VWS V14.00,2013-09-04 03:03:00,
2013-09-03 23:08:00,65.8,46.7,29.71,WNW,282,0.0,0.0,50,0.00,,OVC033,0.00,VWS V14.00,2013-09-04 03:08:00,
2013-09-03 23:13:00,65.7,47.1,29.71,WNW,282,0.0,0.0,51,0.00,,OVC033,0.00,VWS V14.00,2013-09-04 03:13:00,
2013-09-03 23:18:00,65.5,46.9,29.71,WNW,282,0.0,0.0,51,0.00,,OVC033,0.00,VWS V14.00,2013-09-04 03:18:00,
2013-09-03 23:23:00,65.3,47.2,29.71,WNW,283,0.0,0.0,52,0.00,,OVC033,0.00,VWS V14.00,2013-09-04 03:23:00,
2013-09-03 23:28:00,65.1,47.6,29.74,WNW,283,0.0,0.0,53,0.00,,OVC033,0.00,VWS V14.00,2013-09-04 03:28:00,
2013-09-03 23:33:00,64.8,47.8,29.74,WNW,283,0.0,0.0,54,0.00,,OVC033,0.00,VWS V14.00,2013-09-04 03:33:00,
2013-09-03 23:38:00,64.6,48.1,29.74,WNW,282,0.0,0.0,55,0.00,,OVC033,0.00,VWS V14.00,2013-09-04 03:38:00,
2013-09-03 23:43:00,64.4,47.4,29.71,WNW,282,0.0,0.0,54,0.00,,OVC033,0.00,VWS V14.00,2013-09-04 03:43:00,
2013-09-03 23:48:00,64.0,47.6,29.71,WNW,282,0.0,0.0,55,0.00,,OVC033,0.00,VWS V14.00,2013-09-04 03:48:00,
2013-09-03 23:53:00,63.3,47.4,29.71,WNW,282,0.0,0.0,56,0.00,,OVC033,0.00,VWS V14.00,2013-09-04 03:53:00,
2013-09-03 23:58:00,63.0,47.5,29.74,WNW,282,0.0,0.0,57,0.00,,OVC033,0.00,VWS V14.00,2013-09-04 03:58:00,